sensor_id;sensor_type;location;lat;lon;timestamp;pressure;altitude;pressure_sealevel;temperature;humidity
76730;BME280;65653;53.106;18.046;2024-01-07T00:00:11;101284.45;;;-6.23;88.89
76730;BME280;65653;53.106;18.046;2024-01-07T00:02:38;101283.48;;;-6.25;88.96
76730;BME280;65653;53.106;18.046;2024-01-07T00:05:05;101278.13;;;-6.26;88.86
76730;BME280;65653;53.106;18.046;2024-01-07T00:07:31;101280.22;;;-6.28;89.11
76730;BME280;65653;53.106;18.046;2024-01-07T00:09:58;101280.96;;;-6.28;89.13
76730;BME280;65653;53.106;18.046;2024-01-07T00:12:24;101287.36;;;-6.30;89.22
76730;BME280;65653;53.106;18.046;2024-01-07T00:14:51;101286.00;;;-6.35;89.34
76730;BME280;65653;53.106;18.046;2024-01-07T00:17:18;101292.05;;;-6.40;89.52
76730;BME280;65653;53.106;18.046;2024-01-07T00:19:44;101289.45;;;-6.45;89.78
76730;BME280;65653;53.106;18.046;2024-01-07T00:22:11;101289.84;;;-6.49;90.04
76730;BME280;65653;53.106;18.046;2024-01-07T00:24:37;101292.45;;;-6.51;90.14
76730;BME280;65653;53.106;18.046;2024-01-07T00:27:04;101294.38;;;-6.53;90.51
76730;BME280;65653;53.106;18.046;2024-01-07T00:29:30;101296.67;;;-6.53;90.60
76730;BME280;65653;53.106;18.046;2024-01-07T00:31:57;101299.60;;;-6.54;90.47
76730;BME280;65653;53.106;18.046;2024-01-07T00:34:23;101303.88;;;-6.53;90.57
76730;BME280;65653;53.106;18.046;2024-01-07T00:36:50;101305.48;;;-6.53;90.30
76730;BME280;65653;53.106;18.046;2024-01-07T00:39:16;101309.98;;;-6.50;90.16
76730;BME280;65653;53.106;18.046;2024-01-07T00:41:43;101312.39;;;-6.47;89.87
76730;BME280;65653;53.106;18.046;2024-01-07T00:44:09;101315.16;;;-6.46;89.76
76730;BME280;65653;53.106;18.046;2024-01-07T00:46:35;101316.73;;;-6.45;89.68
76730;BME280;65653;53.106;18.046;2024-01-07T00:49:02;101313.92;;;-6.46;89.54
76730;BME280;65653;53.106;18.046;2024-01-07T00:51:29;101314.95;;;-6.45;89.29
76730;BME280;65653;53.106;18.046;2024-01-07T00:53:55;101312.67;;;-6.46;89.44
76730;BME280;65653;53.106;18.046;2024-01-07T00:56:25;101308.70;;;-6.49;89.53
76730;BME280;65653;53.106;18.046;2024-01-07T00:58:52;101307.60;;;-6.52;89.63
76730;BME280;65653;53.106;18.046;2024-01-07T01:01:19;101306.93;;;-6.56;89.72
76730;BME280;65653;53.106;18.046;2024-01-07T01:03:45;101306.23;;;-6.60;89.93
76730;BME280;65653;53.106;18.046;2024-01-07T01:06:12;101304.72;;;-6.65;90.09
76730;BME280;65653;53.106;18.046;2024-01-07T01:08:39;101303.59;;;-6.71;90.34
76730;BME280;65653;53.106;18.046;2024-01-07T01:11:09;101306.02;;;-6.76;90.49
76730;BME280;65653;53.106;18.046;2024-01-07T01:13:37;101304.16;;;-6.81;90.44
76730;BME280;65653;53.106;18.046;2024-01-07T01:16:03;101305.09;;;-6.85;90.70
76730;BME280;65653;53.106;18.046;2024-01-07T01:18:30;101311.78;;;-6.89;90.90
76730;BME280;65653;53.106;18.046;2024-01-07T01:20:57;101313.80;;;-6.90;91.03
76730;BME280;65653;53.106;18.046;2024-01-07T01:23:23;101312.77;;;-6.92;91.04
76730;BME280;65653;53.106;18.046;2024-01-07T01:25:50;101317.30;;;-6.95;91.17
76730;BME280;65653;53.106;18.046;2024-01-07T01:28:16;101321.18;;;-6.98;91.14
76730;BME280;65653;53.106;18.046;2024-01-07T01:30:42;101324.48;;;-6.99;91.27
76730;BME280;65653;53.106;18.046;2024-01-07T01:33:09;101325.09;;;-7.00;91.28
76730;BME280;65653;53.106;18.046;2024-01-07T01:35:36;101321.73;;;-7.01;91.21
76730;BME280;65653;53.106;18.046;2024-01-07T01:38:02;101324.73;;;-7.03;91.40
76730;BME280;65653;53.106;18.046;2024-01-07T01:40:29;101328.58;;;-7.05;91.27
76730;BME280;65653;53.106;18.046;2024-01-07T01:42:55;101337.32;;;-7.07;91.30
76730;BME280;65653;53.106;18.046;2024-01-07T01:45:22;101339.71;;;-7.09;91.57
76730;BME280;65653;53.106;18.046;2024-01-07T01:47:49;101339.45;;;-7.10;91.57
76730;BME280;65653;53.106;18.046;2024-01-07T01:50:16;101338.48;;;-7.12;91.75
76730;BME280;65653;53.106;18.046;2024-01-07T01:52:45;101339.17;;;-7.15;91.92
76730;BME280;65653;53.106;18.046;2024-01-07T01:55:13;101340.14;;;-7.17;92.05
76730;BME280;65653;53.106;18.046;2024-01-07T01:57:40;101346.30;;;-7.18;92.24
76730;BME280;65653;53.106;18.046;2024-01-07T02:00:07;101347.42;;;-7.19;92.47
76730;BME280;65653;53.106;18.046;2024-01-07T02:02:35;101346.59;;;-7.21;92.51
76730;BME280;65653;53.106;18.046;2024-01-07T02:05:02;101343.19;;;-7.24;92.63
76730;BME280;65653;53.106;18.046;2024-01-07T02:07:30;101348.65;;;-7.29;92.63
76730;BME280;65653;53.106;18.046;2024-01-07T02:09:57;101347.40;;;-7.33;93.13
76730;BME280;65653;53.106;18.046;2024-01-07T02:12:24;101346.73;;;-7.34;93.67
76730;BME280;65653;53.106;18.046;2024-01-07T02:14:50;101347.02;;;-7.36;93.74
76730;BME280;65653;53.106;18.046;2024-01-07T02:17:18;101348.39;;;-7.38;93.85
76730;BME280;65653;53.106;18.046;2024-01-07T02:19:45;101350.33;;;-7.41;94.14
76730;BME280;65653;53.106;18.046;2024-01-07T02:22:12;101349.55;;;-7.43;94.14
76730;BME280;65653;53.106;18.046;2024-01-07T02:24:38;101346.52;;;-7.47;94.11
76730;BME280;65653;53.106;18.046;2024-01-07T02:27:05;101348.83;;;-7.50;94.22
76730;BME280;65653;53.106;18.046;2024-01-07T02:29:31;101350.34;;;-7.52;94.54
76730;BME280;65653;53.106;18.046;2024-01-07T02:31:58;101352.70;;;-7.53;94.32
76730;BME280;65653;53.106;18.046;2024-01-07T02:34:24;101353.30;;;-7.54;94.37
76730;BME280;65653;53.106;18.046;2024-01-07T02:36:51;101358.91;;;-7.52;94.50
76730;BME280;65653;53.106;18.046;2024-01-07T02:39:17;101359.98;;;-7.51;94.13
76730;BME280;65653;53.106;18.046;2024-01-07T02:41:44;101359.89;;;-7.53;94.22
76730;BME280;65653;53.106;18.046;2024-01-07T02:44:11;101359.42;;;-7.55;93.93
76730;BME280;65653;53.106;18.046;2024-01-07T02:46:37;101364.31;;;-7.59;93.77
76730;BME280;65653;53.106;18.046;2024-01-07T02:49:03;101364.55;;;-7.63;94.16
76730;BME280;65653;53.106;18.046;2024-01-07T02:51:30;101362.39;;;-7.67;94.06
76730;BME280;65653;53.106;18.046;2024-01-07T02:53:57;101370.73;;;-7.73;93.97
76730;BME280;65653;53.106;18.046;2024-01-07T02:56:23;101373.30;;;-7.78;94.42
76730;BME280;65653;53.106;18.046;2024-01-07T02:58:50;101367.79;;;-7.82;94.58
76730;BME280;65653;53.106;18.046;2024-01-07T03:01:16;101368.61;;;-7.88;94.54
76730;BME280;65653;53.106;18.046;2024-01-07T03:03:43;101368.92;;;-7.95;94.71
76730;BME280;65653;53.106;18.046;2024-01-07T03:06:09;101370.20;;;-7.99;94.95
76730;BME280;65653;53.106;18.046;2024-01-07T03:08:36;101374.11;;;-8.02;95.23
76730;BME280;65653;53.106;18.046;2024-01-07T03:11:06;101378.65;;;-8.04;95.24
76730;BME280;65653;53.106;18.046;2024-01-07T03:13:32;101372.31;;;-8.06;95.01
76730;BME280;65653;53.106;18.046;2024-01-07T03:16:00;101383.91;;;-8.08;95.18
76730;BME280;65653;53.106;18.046;2024-01-07T03:18:27;101382.45;;;-8.08;95.52
76730;BME280;65653;53.106;18.046;2024-01-07T03:20:54;101381.38;;;-8.08;95.54
76730;BME280;65653;53.106;18.046;2024-01-07T03:23:21;101383.23;;;-8.09;95.37
76730;BME280;65653;53.106;18.046;2024-01-07T03:25:48;101380.73;;;-8.10;95.42
76730;BME280;65653;53.106;18.046;2024-01-07T03:28:14;101374.77;;;-8.08;95.77
76730;BME280;65653;53.106;18.046;2024-01-07T03:30:42;101377.08;;;-8.08;95.84
76730;BME280;65653;53.106;18.046;2024-01-07T03:33:08;101375.76;;;-8.06;96.18
76730;BME280;65653;53.106;18.046;2024-01-07T03:35:35;101382.67;;;-8.05;96.13
76730;BME280;65653;53.106;18.046;2024-01-07T03:38:01;101388.00;;;-8.04;95.76
76730;BME280;65653;53.106;18.046;2024-01-07T03:40:28;101390.14;;;-8.03;95.72
76730;BME280;65653;53.106;18.046;2024-01-07T03:42:54;101389.55;;;-8.03;95.60
76730;BME280;65653;53.106;18.046;2024-01-07T03:45:21;101384.30;;;-8.02;95.57
76730;BME280;65653;53.106;18.046;2024-01-07T03:47:47;101385.88;;;-8.01;95.54
76730;BME280;65653;53.106;18.046;2024-01-07T03:50:14;101387.97;;;-7.99;95.66
76730;BME280;65653;53.106;18.046;2024-01-07T03:52:40;101388.55;;;-8.01;95.49
76730;BME280;65653;53.106;18.046;2024-01-07T03:55:07;101392.33;;;-8.01;95.54
76730;BME280;65653;53.106;18.046;2024-01-07T03:57:33;101392.62;;;-7.99;95.67
76730;BME280;65653;53.106;18.046;2024-01-07T04:00:00;101391.33;;;-7.99;95.52
76730;BME280;65653;53.106;18.046;2024-01-07T04:02:26;101393.02;;;-8.01;95.87
76730;BME280;65653;53.106;18.046;2024-01-07T04:04:53;101390.72;;;-8.01;95.78
76730;BME280;65653;53.106;18.046;2024-01-07T04:07:19;101396.09;;;-7.97;95.75
76730;BME280;65653;53.106;18.046;2024-01-07T04:09:46;101391.34;;;-7.91;95.54
76730;BME280;65653;53.106;18.046;2024-01-07T04:12:13;101392.48;;;-7.85;95.51
76730;BME280;65653;53.106;18.046;2024-01-07T04:14:40;101394.30;;;-7.78;95.54
76730;BME280;65653;53.106;18.046;2024-01-07T04:17:06;101399.21;;;-7.72;95.33
76730;BME280;65653;53.106;18.046;2024-01-07T04:19:36;101399.74;;;-7.65;94.89
76730;BME280;65653;53.106;18.046;2024-01-07T04:22:03;101403.65;;;-7.57;94.65
76730;BME280;65653;53.106;18.046;2024-01-07T04:24:30;101405.77;;;-7.48;94.47
76730;BME280;65653;53.106;18.046;2024-01-07T04:26:57;101407.17;;;-7.41;94.22
76730;BME280;65653;53.106;18.046;2024-01-07T04:29:23;101406.48;;;-7.34;94.03
76730;BME280;65653;53.106;18.046;2024-01-07T04:31:50;101409.80;;;-7.29;93.67
76730;BME280;65653;53.106;18.046;2024-01-07T04:34:17;101410.86;;;-7.25;93.52
76730;BME280;65653;53.106;18.046;2024-01-07T04:36:43;101413.94;;;-7.22;93.31
76730;BME280;65653;53.106;18.046;2024-01-07T04:39:10;101421.21;;;-7.20;93.28
76730;BME280;65653;53.106;18.046;2024-01-07T04:41:36;101419.23;;;-7.17;93.11
76730;BME280;65653;53.106;18.046;2024-01-07T04:44:04;101412.83;;;-7.14;92.91
76730;BME280;65653;53.106;18.046;2024-01-07T04:46:34;101414.66;;;-7.11;92.82
76730;BME280;65653;53.106;18.046;2024-01-07T04:49:02;101417.96;;;-7.09;92.61
76730;BME280;65653;53.106;18.046;2024-01-07T04:51:28;101419.95;;;-7.06;92.66
76730;BME280;65653;53.106;18.046;2024-01-07T04:53:54;101413.84;;;-7.02;92.65
76730;BME280;65653;53.106;18.046;2024-01-07T04:56:21;101414.70;;;-6.98;92.69
76730;BME280;65653;53.106;18.046;2024-01-07T04:58:47;101412.89;;;-6.94;92.61
76730;BME280;65653;53.106;18.046;2024-01-07T05:01:14;101415.66;;;-6.89;92.36
76730;BME280;65653;53.106;18.046;2024-01-07T05:03:41;101418.35;;;-6.85;92.40
76730;BME280;65653;53.106;18.046;2024-01-07T05:06:08;101429.61;;;-6.81;92.51
76730;BME280;65653;53.106;18.046;2024-01-07T05:08:36;101427.21;;;-6.76;92.05
76730;BME280;65653;53.106;18.046;2024-01-07T05:11:04;101421.73;;;-6.74;91.74
76730;BME280;65653;53.106;18.046;2024-01-07T05:13:30;101422.17;;;-6.72;91.76
76730;BME280;65653;53.106;18.046;2024-01-07T05:15:57;101421.39;;;-6.68;91.72
76730;BME280;65653;53.106;18.046;2024-01-07T05:18:24;101427.02;;;-6.62;91.68
76730;BME280;65653;53.106;18.046;2024-01-07T05:20:51;101430.43;;;-6.55;91.08
76730;BME280;65653;53.106;18.046;2024-01-07T05:23:18;101432.27;;;-6.50;90.65
76730;BME280;65653;53.106;18.046;2024-01-07T05:25:45;101429.71;;;-6.45;90.31
76730;BME280;65653;53.106;18.046;2024-01-07T05:28:12;101436.09;;;-6.43;90.03
76730;BME280;65653;53.106;18.046;2024-01-07T05:30:41;101435.81;;;-6.41;89.86
76730;BME280;65653;53.106;18.046;2024-01-07T05:33:07;101440.58;;;-6.43;89.37
76730;BME280;65653;53.106;18.046;2024-01-07T05:35:34;101443.31;;;-6.44;89.55
76730;BME280;65653;53.106;18.046;2024-01-07T05:38:01;101438.53;;;-6.45;89.60
76730;BME280;65653;53.106;18.046;2024-01-07T05:40:27;101441.35;;;-6.44;89.54
76730;BME280;65653;53.106;18.046;2024-01-07T05:42:54;101444.02;;;-6.44;89.21
76730;BME280;65653;53.106;18.046;2024-01-07T05:45:21;101442.36;;;-6.46;88.73
76730;BME280;65653;53.106;18.046;2024-01-07T05:47:47;101444.79;;;-6.52;88.57
76730;BME280;65653;53.106;18.046;2024-01-07T05:50:14;101445.91;;;-6.56;88.29
76730;BME280;65653;53.106;18.046;2024-01-07T05:52:42;101448.23;;;-6.59;87.92
76730;BME280;65653;53.106;18.046;2024-01-07T05:55:09;101446.15;;;-6.60;87.99
76730;BME280;65653;53.106;18.046;2024-01-07T05:57:35;101448.50;;;-6.61;88.09
76730;BME280;65653;53.106;18.046;2024-01-07T06:00:02;101450.29;;;-6.61;88.14
76730;BME280;65653;53.106;18.046;2024-01-07T06:02:29;101450.11;;;-6.61;88.54
76730;BME280;65653;53.106;18.046;2024-01-07T06:04:55;101453.42;;;-6.62;88.54
76730;BME280;65653;53.106;18.046;2024-01-07T06:07:22;101459.31;;;-6.68;88.51
76730;BME280;65653;53.106;18.046;2024-01-07T06:09:49;101461.10;;;-6.79;88.67
76730;BME280;65653;53.106;18.046;2024-01-07T06:12:15;101463.50;;;-6.91;88.65
76730;BME280;65653;53.106;18.046;2024-01-07T06:14:42;101462.95;;;-7.01;88.70
76730;BME280;65653;53.106;18.046;2024-01-07T06:17:08;101465.50;;;-7.09;88.92
76730;BME280;65653;53.106;18.046;2024-01-07T06:19:35;101464.97;;;-7.16;89.20
76730;BME280;65653;53.106;18.046;2024-01-07T06:22:02;101463.98;;;-7.25;89.65
76730;BME280;65653;53.106;18.046;2024-01-07T06:24:29;101463.04;;;-7.36;90.06
76730;BME280;65653;53.106;18.046;2024-01-07T06:26:56;101465.33;;;-7.42;90.20
76730;BME280;65653;53.106;18.046;2024-01-07T06:29:22;101468.63;;;-7.47;90.35
76730;BME280;65653;53.106;18.046;2024-01-07T06:31:49;101465.48;;;-7.52;90.56
76730;BME280;65653;53.106;18.046;2024-01-07T06:34:15;101472.47;;;-7.56;90.70
76730;BME280;65653;53.106;18.046;2024-01-07T06:36:42;101466.44;;;-7.61;91.04
76730;BME280;65653;53.106;18.046;2024-01-07T06:39:08;101467.44;;;-7.67;91.11
76730;BME280;65653;53.106;18.046;2024-01-07T06:41:35;101466.77;;;-7.72;91.43
76730;BME280;65653;53.106;18.046;2024-01-07T06:44:02;101461.66;;;-7.78;91.67
76730;BME280;65653;53.106;18.046;2024-01-07T06:46:29;101461.59;;;-7.80;91.97
76730;BME280;65653;53.106;18.046;2024-01-07T06:48:56;101464.77;;;-7.79;92.20
76730;BME280;65653;53.106;18.046;2024-01-07T06:51:23;101465.05;;;-7.77;92.14
76730;BME280;65653;53.106;18.046;2024-01-07T06:53:49;101466.07;;;-7.76;92.21
76730;BME280;65653;53.106;18.046;2024-01-07T06:56:16;101467.90;;;-7.77;92.01
76730;BME280;65653;53.106;18.046;2024-01-07T06:58:44;101472.20;;;-7.80;92.19
76730;BME280;65653;53.106;18.046;2024-01-07T07:01:10;101476.48;;;-7.84;92.05
76730;BME280;65653;53.106;18.046;2024-01-07T07:03:37;101482.61;;;-7.85;92.12
76730;BME280;65653;53.106;18.046;2024-01-07T07:06:04;101479.21;;;-7.85;92.25
76730;BME280;65653;53.106;18.046;2024-01-07T07:08:31;101479.10;;;-7.82;92.22
76730;BME280;65653;53.106;18.046;2024-01-07T07:10:57;101482.00;;;-7.79;91.92
76730;BME280;65653;53.106;18.046;2024-01-07T07:13:23;101491.57;;;-7.77;91.66
76730;BME280;65653;53.106;18.046;2024-01-07T07:15:50;101497.52;;;-7.77;91.60
76730;BME280;65653;53.106;18.046;2024-01-07T07:18:17;101504.24;;;-7.79;91.67
76730;BME280;65653;53.106;18.046;2024-01-07T07:20:43;101508.48;;;-7.82;91.71
76730;BME280;65653;53.106;18.046;2024-01-07T07:23:10;101505.32;;;-7.84;91.79
76730;BME280;65653;53.106;18.046;2024-01-07T07:25:37;101507.06;;;-7.83;91.57
76730;BME280;65653;53.106;18.046;2024-01-07T07:28:03;101505.20;;;-7.81;91.70
76730;BME280;65653;53.106;18.046;2024-01-07T07:30:30;101516.13;;;-7.77;91.66
76730;BME280;65653;53.106;18.046;2024-01-07T07:32:57;101519.70;;;-7.73;91.64
76730;BME280;65653;53.106;18.046;2024-01-07T07:35:23;101522.52;;;-7.72;91.56
76730;BME280;65653;53.106;18.046;2024-01-07T07:37:50;101519.38;;;-7.70;91.32
76730;BME280;65653;53.106;18.046;2024-01-07T07:40:16;101516.58;;;-7.67;90.78
76730;BME280;65653;53.106;18.046;2024-01-07T07:42:43;101513.77;;;-7.54;90.42
76730;BME280;65653;53.106;18.046;2024-01-07T07:45:09;101516.75;;;-7.33;90.15
76730;BME280;65653;53.106;18.046;2024-01-07T07:47:36;101521.64;;;-7.19;89.19
76730;BME280;65653;53.106;18.046;2024-01-07T07:50:03;101525.54;;;-7.22;88.40
76730;BME280;65653;53.106;18.046;2024-01-07T07:52:30;101522.48;;;-7.22;88.13
76730;BME280;65653;53.106;18.046;2024-01-07T07:54:56;101525.29;;;-7.28;87.18
76730;BME280;65653;53.106;18.046;2024-01-07T07:57:24;101526.80;;;-7.26;87.26
76730;BME280;65653;53.106;18.046;2024-01-07T07:59:51;101529.69;;;-7.23;87.13
76730;BME280;65653;53.106;18.046;2024-01-07T08:02:18;101536.95;;;-7.25;86.33
76730;BME280;65653;53.106;18.046;2024-01-07T08:04:44;101542.63;;;-7.27;85.78
76730;BME280;65653;53.106;18.046;2024-01-07T08:07:11;101543.84;;;-7.30;85.54
76730;BME280;65653;53.106;18.046;2024-01-07T08:09:37;101546.96;;;-7.24;85.55
76730;BME280;65653;53.106;18.046;2024-01-07T08:12:05;101544.05;;;-7.19;85.27
76730;BME280;65653;53.106;18.046;2024-01-07T08:14:32;101545.86;;;-7.19;84.91
76730;BME280;65653;53.106;18.046;2024-01-07T08:16:59;101552.51;;;-7.16;84.85
76730;BME280;65653;53.106;18.046;2024-01-07T08:19:25;101551.58;;;-7.15;84.12
76730;BME280;65653;53.106;18.046;2024-01-07T08:21:52;101554.94;;;-7.14;84.26
76730;BME280;65653;53.106;18.046;2024-01-07T08:24:19;101557.98;;;-7.10;83.57
76730;BME280;65653;53.106;18.046;2024-01-07T08:26:45;101558.36;;;-7.15;81.75
76730;BME280;65653;53.106;18.046;2024-01-07T08:29:12;101562.15;;;-7.19;80.37
76730;BME280;65653;53.106;18.046;2024-01-07T08:31:39;101566.23;;;-7.17;79.94
76730;BME280;65653;53.106;18.046;2024-01-07T08:34:05;101570.65;;;-7.12;79.63
76730;BME280;65653;53.106;18.046;2024-01-07T08:36:32;101570.54;;;-7.10;79.19
76730;BME280;65653;53.106;18.046;2024-01-07T08:38:58;101573.55;;;-7.09;78.65
76730;BME280;65653;53.106;18.046;2024-01-07T08:41:25;101575.13;;;-7.05;79.05
76730;BME280;65653;53.106;18.046;2024-01-07T08:43:52;101570.80;;;-7.08;78.28
76730;BME280;65653;53.106;18.046;2024-01-07T08:46:21;101572.13;;;-6.99;78.82
76730;BME280;65653;53.106;18.046;2024-01-07T08:48:48;101572.70;;;-6.85;78.35
76730;BME280;65653;53.106;18.046;2024-01-07T08:51:14;101570.91;;;-6.74;78.70
76730;BME280;65653;53.106;18.046;2024-01-07T08:53:41;101567.17;;;-6.57;79.56
76730;BME280;65653;53.106;18.046;2024-01-07T08:56:07;101564.62;;;-6.34;79.51
76730;BME280;65653;53.106;18.046;2024-01-07T08:58:35;101567.90;;;-6.21;78.33
76730;BME280;65653;53.106;18.046;2024-01-07T09:01:03;101566.89;;;-6.23;77.17
76730;BME280;65653;53.106;18.046;2024-01-07T09:03:30;101566.41;;;-6.03;77.06
76730;BME280;65653;53.106;18.046;2024-01-07T09:05:56;101568.62;;;-5.74;75.69
76730;BME280;65653;53.106;18.046;2024-01-07T09:08:23;101571.37;;;-5.42;75.04
76730;BME280;65653;53.106;18.046;2024-01-07T09:10:49;101568.75;;;-5.18;72.82
76730;BME280;65653;53.106;18.046;2024-01-07T09:13:16;101577.35;;;-5.17;71.06
76730;BME280;65653;53.106;18.046;2024-01-07T09:15:43;101586.83;;;-5.23;69.69
76730;BME280;65653;53.106;18.046;2024-01-07T09:18:09;101590.27;;;-5.39;68.40
76730;BME280;65653;53.106;18.046;2024-01-07T09:20:36;101588.41;;;-5.41;68.94
76730;BME280;65653;53.106;18.046;2024-01-07T09:23:02;101590.73;;;-5.25;68.43
76730;BME280;65653;53.106;18.046;2024-01-07T09:25:29;101598.02;;;-4.94;67.73
76730;BME280;65653;53.106;18.046;2024-01-07T09:27:56;101594.70;;;-4.67;66.65
76730;BME280;65653;53.106;18.046;2024-01-07T09:30:22;101595.59;;;-4.52;65.61
76730;BME280;65653;53.106;18.046;2024-01-07T09:32:49;101598.58;;;-4.35;65.73
76730;BME280;65653;53.106;18.046;2024-01-07T09:35:16;101603.58;;;-4.41;62.23
76730;BME280;65653;53.106;18.046;2024-01-07T09:37:43;101606.70;;;-4.60;61.89
76730;BME280;65653;53.106;18.046;2024-01-07T09:40:10;101605.21;;;-4.41;64.04
76730;BME280;65653;53.106;18.046;2024-01-07T09:42:37;101606.90;;;-4.48;62.06
76730;BME280;65653;53.106;18.046;2024-01-07T09:45:04;101607.57;;;-4.78;61.94
76730;BME280;65653;53.106;18.046;2024-01-07T09:47:34;101607.73;;;-4.77;63.04
76730;BME280;65653;53.106;18.046;2024-01-07T09:50:01;101609.91;;;-4.65;64.14
76730;BME280;65653;53.106;18.046;2024-01-07T09:52:28;101604.05;;;-4.49;62.76
76730;BME280;65653;53.106;18.046;2024-01-07T09:54:58;101604.07;;;-4.18;62.73
76730;BME280;65653;53.106;18.046;2024-01-07T09:57:26;101603.12;;;-3.87;60.83
76730;BME280;65653;53.106;18.046;2024-01-07T09:59:53;101597.26;;;-3.65;60.40
76730;BME280;65653;53.106;18.046;2024-01-07T10:02:20;101595.95;;;-3.44;60.77
76730;BME280;65653;53.106;18.046;2024-01-07T10:04:49;101593.22;;;-3.64;60.17
76730;BME280;65653;53.106;18.046;2024-01-07T10:07:16;101588.68;;;-3.93;59.67
76730;BME280;65653;53.106;18.046;2024-01-07T10:09:43;101589.34;;;-3.89;61.73
76730;BME280;65653;53.106;18.046;2024-01-07T10:12:10;101591.57;;;-4.05;60.90
76730;BME280;65653;53.106;18.046;2024-01-07T10:14:38;101590.13;;;-3.93;61.18
76730;BME280;65653;53.106;18.046;2024-01-07T10:17:15;101590.83;;;-4.01;61.41
76730;BME280;65653;53.106;18.046;2024-01-07T10:19:44;101596.73;;;-4.13;60.61
76730;BME280;65653;53.106;18.046;2024-01-07T10:22:14;101588.76;;;-4.03;61.53
76730;BME280;65653;53.106;18.046;2024-01-07T10:24:42;101585.42;;;-3.96;60.53
76730;BME280;65653;53.106;18.046;2024-01-07T10:27:12;101586.41;;;-3.51;62.02
76730;BME280;65653;53.106;18.046;2024-01-07T10:29:39;101582.40;;;-3.16;59.60
76730;BME280;65653;53.106;18.046;2024-01-07T10:32:06;101583.52;;;-2.66;59.17
76730;BME280;65653;53.106;18.046;2024-01-07T10:34:34;101579.42;;;-2.37;56.91
76730;BME280;65653;53.106;18.046;2024-01-07T10:37:03;101573.88;;;-1.91;56.26
76730;BME280;65653;53.106;18.046;2024-01-07T10:39:31;101571.39;;;-1.94;53.21
76730;BME280;65653;53.106;18.046;2024-01-07T10:41:57;101568.27;;;-1.55;54.24
76730;BME280;65653;53.106;18.046;2024-01-07T10:44:29;101564.86;;;-1.17;53.93
76730;BME280;65653;53.106;18.046;2024-01-07T10:46:57;101565.34;;;-0.96;54.23
76730;BME280;65653;53.106;18.046;2024-01-07T10:49:26;101569.33;;;-0.96;53.49
76730;BME280;65653;53.106;18.046;2024-01-07T10:52:04;101563.96;;;-1.37;52.14
76730;BME280;65653;53.106;18.046;2024-01-07T10:54:33;101568.40;;;-1.61;52.27
76730;BME280;65653;53.106;18.046;2024-01-07T10:57:21;101570.60;;;-1.87;51.66
76730;BME280;65653;53.106;18.046;2024-01-07T10:59:51;101574.21;;;-1.14;53.71
76730;BME280;65653;53.106;18.046;2024-01-07T11:02:21;101573.52;;;-0.40;51.85
76730;BME280;65653;53.106;18.046;2024-01-07T11:07:57;101576.37;;;-0.30;50.73
76730;BME280;65653;53.106;18.046;2024-01-07T11:10:49;101573.46;;;-0.14;50.34
76730;BME280;65653;53.106;18.046;2024-01-07T11:13:34;101574.52;;;0.13;49.27
76730;BME280;65653;53.106;18.046;2024-01-07T11:16:05;101573.56;;;0.13;48.28
76730;BME280;65653;53.106;18.046;2024-01-07T11:18:31;101572.90;;;-0.09;47.18
76730;BME280;65653;53.106;18.046;2024-01-07T11:21:01;101567.57;;;0.06;49.07
76730;BME280;65653;53.106;18.046;2024-01-07T11:23:35;101564.80;;;0.37;48.64
76730;BME280;65653;53.106;18.046;2024-01-07T11:26:06;101570.61;;;0.60;48.99
76730;BME280;65653;53.106;18.046;2024-01-07T11:28:46;101566.84;;;0.80;46.53
76730;BME280;65653;53.106;18.046;2024-01-07T11:31:14;101564.17;;;0.68;46.75
76730;BME280;65653;53.106;18.046;2024-01-07T11:33:43;101569.95;;;0.73;47.52
76730;BME280;65653;53.106;18.046;2024-01-07T11:36:12;101568.08;;;0.46;45.31
76730;BME280;65653;53.106;18.046;2024-01-07T11:38:47;101566.73;;;0.33;46.09
76730;BME280;65653;53.106;18.046;2024-01-07T11:41:15;101569.73;;;0.41;46.12
76730;BME280;65653;53.106;18.046;2024-01-07T11:43:57;101565.17;;;0.48;45.82
76730;BME280;65653;53.106;18.046;2024-01-07T11:46:26;101562.32;;;0.73;44.59
76730;BME280;65653;53.106;18.046;2024-01-07T11:48:55;101565.60;;;0.45;43.48
76730;BME280;65653;53.106;18.046;2024-01-07T11:51:30;101566.40;;;0.81;44.17
76730;BME280;65653;53.106;18.046;2024-01-07T11:53:58;101569.78;;;0.52;42.77
76730;BME280;65653;53.106;18.046;2024-01-07T11:56:25;101565.23;;;0.72;44.93
76730;BME280;65653;53.106;18.046;2024-01-07T11:58:52;101564.16;;;0.82;43.31
76730;BME280;65653;53.106;18.046;2024-01-07T12:01:19;101560.52;;;0.88;44.30
76730;BME280;65653;53.106;18.046;2024-01-07T12:03:46;101562.38;;;1.23;44.79
76730;BME280;65653;53.106;18.046;2024-01-07T12:06:13;101557.27;;;1.36;43.09
76730;BME280;65653;53.106;18.046;2024-01-07T12:08:41;101560.23;;;1.45;44.69
76730;BME280;65653;53.106;18.046;2024-01-07T12:11:12;101560.41;;;1.54;42.59
76730;BME280;65653;53.106;18.046;2024-01-07T12:13:39;101565.35;;;1.42;41.60
76730;BME280;65653;53.106;18.046;2024-01-07T12:16:07;101565.80;;;1.43;41.53
76730;BME280;65653;53.106;18.046;2024-01-07T12:18:38;101563.69;;;1.73;41.87
76730;BME280;65653;53.106;18.046;2024-01-07T12:21:05;101559.28;;;1.93;41.65
76730;BME280;65653;53.106;18.046;2024-01-07T12:23:35;101560.38;;;1.23;40.85
76730;BME280;65653;53.106;18.046;2024-01-07T12:26:09;101565.05;;;-0.49;43.43
76730;BME280;65653;53.106;18.046;2024-01-07T12:28:39;101564.52;;;-0.27;45.17
76730;BME280;65653;53.106;18.046;2024-01-07T12:31:07;101564.13;;;-0.01;43.62
76730;BME280;65653;53.106;18.046;2024-01-07T12:33:34;101561.27;;;0.38;43.51
76730;BME280;65653;53.106;18.046;2024-01-07T12:36:01;101563.05;;;-0.44;43.86
76730;BME280;65653;53.106;18.046;2024-01-07T12:38:27;101570.55;;;-1.84;46.71
76730;BME280;65653;53.106;18.046;2024-01-07T12:40:54;101579.25;;;-3.01;49.08
76730;BME280;65653;53.106;18.046;2024-01-07T12:43:20;101574.53;;;-3.74;51.16